Decoded Metar for K1S5 ( in ) (IATA:) | Meteo·Mobile Aviation Weather
aviador You're here:

K1S5 Decoded Metar

in
Report Time2019-04-25 00:35:00
UTC Time2019-04-25 00:35:30
Flight Rules vfr VFR
Wind060° at 03 kt
Visibility9999 m
Phenomena:N/A
Clouds:N/A
Expected CloudBase > 9,200 ft AGL from Temp-Dew spread
CeilingNone
Temp20°C
Dew Point-3°C (21% RH)
AAT16.5°C
QNH1021 hPa
Raw Report
K1S5 250035Z AUTO 06003KT 10SM CLR 20/M03 A3015 RMK AO2
T02041030=

Extra information for K1S5:More info

Social comments